createdAt,value
2022-09-26T00:02:28.901Z,11.32
2022-09-26T00:04:56.454Z,11.19
2022-09-26T00:07:23.726Z,11.04
2022-09-26T00:09:51.165Z,10.90
2022-09-26T00:12:20.455Z,10.62
2022-09-26T00:14:47.679Z,10.53
2022-09-26T00:17:14.984Z,10.67
2022-09-26T00:19:42.619Z,10.77
2022-09-26T00:22:09.734Z,10.91
2022-09-26T00:24:37.109Z,10.79
2022-09-26T00:27:04.782Z,10.61
2022-09-26T00:29:33.418Z,10.74
2022-09-26T00:32:00.930Z,10.47
2022-09-26T00:34:28.486Z,10.45
2022-09-26T00:36:55.651Z,10.61
2022-09-26T00:39:26.179Z,10.81
2022-09-26T00:41:53.835Z,10.99
2022-09-26T00:44:46.442Z,11.08
2022-09-26T00:47:41.114Z,10.79
2022-09-26T00:50:14.182Z,10.84
2022-09-26T00:52:46.680Z,10.89
2022-09-26T00:55:18.145Z,10.67
2022-09-26T00:57:51.406Z,10.58
2022-09-26T01:00:20.847Z,10.59
2022-09-26T01:02:48.975Z,10.29
2022-09-26T01:05:19.006Z,10.21
2022-09-26T01:07:47.000Z,10.08
2022-09-26T01:10:14.670Z,10.15
2022-09-26T01:12:42.743Z,10.03
2022-09-26T01:15:11.040Z,10.30
2022-09-26T01:17:43.129Z,10.27
2022-09-26T01:20:33.467Z,10.08
2022-09-26T01:23:43.762Z,9.97
2022-09-26T01:26:56.223Z,10.20
2022-09-26T01:29:54.926Z,10.11
2022-09-26T01:32:33.923Z,9.94
2022-09-26T01:35:09.412Z,9.58
2022-09-26T01:37:46.349Z,9.80
2022-09-26T01:40:21.739Z,9.75
2022-09-26T01:43:00.037Z,9.65
2022-09-26T01:45:30.247Z,9.71
2022-09-26T01:48:05.603Z,9.70
2022-09-26T01:50:38.307Z,9.77
2022-09-26T01:53:10.367Z,9.64
2022-09-26T01:55:41.084Z,9.61
2022-09-26T01:58:14.209Z,9.75
2022-09-26T02:00:44.486Z,9.83
2022-09-26T02:03:17.424Z,9.91
2022-09-26T02:05:49.972Z,9.99
2022-09-26T02:08:23.030Z,10.00
2022-09-26T02:10:55.815Z,9.79
2022-09-26T02:13:26.714Z,9.59
2022-09-26T02:16:02.718Z,8.91
2022-09-26T02:18:35.956Z,8.52
2022-09-26T02:21:09.483Z,8.56
2022-09-26T02:23:36.719Z,8.55
2022-09-26T02:26:03.956Z,8.40
2022-09-26T02:28:31.655Z,8.56
2022-09-26T02:30:59.797Z,8.78
2022-09-26T02:33:28.054Z,8.88
2022-09-26T02:35:57.194Z,8.88
2022-09-26T02:38:29.081Z,9.08
2022-09-26T02:41:01.559Z,9.19
2022-09-26T02:43:43.154Z,9.36
2022-09-26T02:46:33.756Z,9.36
2022-09-26T02:49:17.134Z,9.22
2022-09-26T02:52:06.928Z,8.93
2022-09-26T02:54:43.587Z,9.06
2022-09-26T02:57:21.303Z,9.07
2022-09-26T02:59:57.174Z,9.06
2022-09-26T03:02:31.709Z,9.05
2022-09-26T03:05:03.378Z,9.24
2022-09-26T03:07:37.806Z,8.86
2022-09-26T03:10:09.092Z,8.95
2022-09-26T03:12:38.416Z,8.86
2022-09-26T03:15:07.631Z,8.85
2022-09-26T03:17:38.099Z,8.53
2022-09-26T03:20:09.777Z,8.40
2022-09-26T03:22:39.040Z,8.62
2022-09-26T03:25:09.330Z,8.63
2022-09-26T03:27:39.130Z,8.69
2022-09-26T03:30:07.299Z,8.67
2022-09-26T03:32:34.985Z,8.92
2022-09-26T03:35:02.323Z,9.08
2022-09-26T03:37:29.715Z,9.19
2022-09-26T03:39:58.693Z,8.84
2022-09-26T03:42:25.905Z,8.97
2022-09-26T03:44:53.185Z,9.00
2022-09-26T03:47:20.767Z,8.94
2022-09-26T03:49:48.196Z,8.69
2022-09-26T03:52:15.493Z,8.70
2022-09-26T03:54:43.142Z,8.64
2022-09-26T03:57:13.609Z,8.61
2022-09-26T03:59:40.926Z,8.64
2022-09-26T04:02:09.200Z,8.59
2022-09-26T04:04:36.557Z,8.53
2022-09-26T04:07:04.546Z,8.40
2022-09-26T04:09:32.409Z,8.56
2022-09-26T04:11:59.773Z,8.71
2022-09-26T04:14:28.457Z,8.85
2022-09-26T04:16:56.252Z,9.05
2022-09-26T04:19:23.691Z,9.16
2022-09-26T04:21:51.130Z,9.41
2022-09-26T04:24:18.807Z,9.55
2022-09-26T04:26:46.197Z,9.52
2022-09-26T04:29:14.282Z,9.39
2022-09-26T04:31:43.842Z,9.33
2022-09-26T04:34:11.813Z,9.46
2022-09-26T04:36:39.236Z,9.67
2022-09-26T04:39:07.021Z,9.42
2022-09-26T04:41:34.453Z,9.56
2022-09-26T04:44:01.991Z,9.82
2022-09-26T04:46:31.146Z,9.81
2022-09-26T04:49:01.088Z,9.80
2022-09-26T04:51:30.375Z,9.71
2022-09-26T04:53:58.649Z,9.80
2022-09-26T04:56:27.677Z,9.88
2022-09-26T04:58:56.637Z,10.03
2022-09-26T05:01:24.790Z,10.28
2022-09-26T05:03:52.192Z,10.44
2022-09-26T05:06:20.978Z,10.40
2022-09-26T05:08:48.893Z,10.32
2022-09-26T05:11:17.973Z,10.41
2022-09-26T05:13:50.071Z,10.46
2022-09-26T05:16:20.437Z,10.50
2022-09-26T05:18:49.950Z,10.45
2022-09-26T05:21:17.214Z,10.41
2022-09-26T05:23:45.921Z,10.52
2022-09-26T05:26:19.728Z,10.56
2022-09-26T05:28:48.791Z,10.78
2022-09-26T05:31:17.085Z,10.96
2022-09-26T05:33:44.518Z,10.92
2022-09-26T05:36:12.933Z,10.97
2022-09-26T05:38:40.188Z,11.06
2022-09-26T05:41:08.727Z,11.26
2022-09-26T05:43:36.326Z,11.40
2022-09-26T05:46:05.277Z,11.30
2022-09-26T05:48:33.902Z,11.30
2022-09-26T05:51:06.338Z,11.22
2022-09-26T05:53:33.755Z,11.30
2022-09-26T05:56:01.474Z,11.42
2022-09-26T05:58:31.468Z,11.37
2022-09-26T06:01:04.492Z,11.46
2022-09-26T06:03:32.201Z,11.58
2022-09-26T06:06:01.907Z,11.60
2022-09-26T06:08:29.441Z,11.54
2022-09-26T06:10:59.850Z,11.69
2022-09-26T06:13:27.092Z,11.69
2022-09-26T06:15:55.920Z,11.73
2022-09-26T06:18:23.600Z,11.85
2022-09-26T06:20:51.001Z,11.82
2022-09-26T06:23:18.607Z,11.93
2022-09-26T06:25:46.199Z,11.93
2022-09-26T06:28:14.217Z,11.92
2022-09-26T06:30:41.423Z,11.84
2022-09-26T06:33:10.458Z,11.83
2022-09-26T06:35:37.895Z,11.84
2022-09-26T06:38:05.018Z,11.93
2022-09-26T06:40:33.257Z,12.04
2022-09-26T06:43:00.894Z,12.07
2022-09-26T06:45:28.374Z,12.09
2022-09-26T06:48:00.337Z,12.03
2022-09-26T06:50:28.974Z,12.07
2022-09-26T06:52:56.526Z,12.19
2022-09-26T06:55:23.830Z,12.34
2022-09-26T06:57:51.778Z,12.32
2022-09-26T07:00:19.187Z,12.41
2022-09-26T07:02:50.395Z,12.53
2022-09-26T07:05:18.231Z,12.58
2022-09-26T07:07:47.107Z,12.53
2022-09-26T07:10:17.078Z,12.53
2022-09-26T07:12:45.101Z,12.57
2022-09-26T07:15:13.411Z,12.54
2022-09-26T07:17:42.154Z,12.65
2022-09-26T07:20:11.169Z,12.73
2022-09-26T07:22:38.457Z,12.79
2022-09-26T07:25:08.507Z,12.71
2022-09-26T07:27:35.808Z,12.61
2022-09-26T07:30:04.900Z,12.52
2022-09-26T07:32:32.428Z,12.66
2022-09-26T07:34:59.773Z,12.65
2022-09-26T07:37:27.927Z,12.85
2022-09-26T07:39:59.352Z,12.82
2022-09-26T07:42:30.805Z,12.90
2022-09-26T07:47:45.571Z,13.06
2022-09-26T07:50:12.827Z,13.14
2022-09-26T07:52:40.439Z,13.34
2022-09-26T07:55:09.580Z,13.38
2022-09-26T07:57:38.314Z,13.43
2022-09-26T08:00:07.703Z,13.45
2022-09-26T08:02:36.098Z,13.52
2022-09-26T08:05:04.765Z,13.58
2022-09-26T08:07:34.056Z,13.63
2022-09-26T08:10:01.687Z,13.67
2022-09-26T08:12:34.359Z,13.78
2022-09-26T08:15:04.189Z,13.87
2022-09-26T08:17:32.519Z,14.07
2022-09-26T08:20:00.123Z,14.20
2022-09-26T08:22:27.764Z,14.37
2022-09-26T08:24:55.987Z,14.53
2022-09-26T08:27:23.556Z,14.70
2022-09-26T08:29:50.853Z,14.88
2022-09-26T08:32:21.118Z,14.83
2022-09-26T08:34:48.509Z,14.90
2022-09-26T08:37:15.758Z,15.09
2022-09-26T08:39:43.312Z,15.10
2022-09-26T08:42:26.111Z,15.21
2022-09-26T08:45:23.673Z,15.28
2022-09-26T08:48:00.856Z,15.44
2022-09-26T08:50:37.871Z,15.43
2022-09-26T08:53:10.083Z,15.41
2022-09-26T08:55:43.194Z,15.31
2022-09-26T08:58:18.794Z,15.28
2022-09-26T09:00:51.030Z,15.26
2022-09-26T09:03:28.341Z,15.25
2022-09-26T09:06:02.009Z,15.31
2022-09-26T09:08:36.204Z,15.27
2022-09-26T09:11:13.716Z,15.36
2022-09-26T09:13:57.252Z,15.26
2022-09-26T09:16:37.241Z,15.44
2022-09-26T09:19:18.948Z,15.28
2022-09-26T09:22:02.389Z,15.29
2022-09-26T09:24:49.009Z,15.58
2022-09-26T09:30:19.695Z,15.84
2022-09-26T09:32:52.753Z,15.98
2022-09-26T09:35:29.704Z,16.05
2022-09-26T09:37:58.148Z,16.12
2022-09-26T09:40:29.505Z,16.20
2022-09-26T09:43:03.013Z,16.15
2022-09-26T09:45:43.506Z,15.82
2022-09-26T09:48:12.288Z,15.71
2022-09-26T09:50:50.805Z,15.41
2022-09-26T09:53:35.923Z,15.35
2022-09-26T09:56:13.494Z,15.28
2022-09-26T09:58:59.300Z,15.38
2022-09-26T10:01:31.985Z,15.30
2022-09-26T10:04:05.440Z,15.18
2022-09-26T10:06:46.553Z,14.87
2022-09-26T10:09:36.052Z,14.82
2022-09-26T10:12:13.871Z,14.78
2022-09-26T10:14:46.132Z,14.85
2022-09-26T10:17:15.951Z,14.81
2022-09-26T10:19:43.227Z,14.87
2022-09-26T10:22:17.526Z,14.84
2022-09-26T10:24:47.677Z,14.59
2022-09-26T10:27:17.974Z,14.62
2022-09-26T10:29:46.642Z,14.53
2022-09-26T10:32:17.847Z,14.62
2022-09-26T10:35:04.140Z,14.65
2022-09-26T10:37:36.883Z,14.50
2022-09-26T10:40:22.853Z,14.41
2022-09-26T10:42:50.459Z,14.63
2022-09-26T10:45:20.226Z,14.58
2022-09-26T10:47:50.636Z,14.54
2022-09-26T10:50:21.732Z,14.47
2022-09-26T10:52:55.912Z,14.48
2022-09-26T10:55:29.488Z,14.58
2022-09-26T10:58:00.156Z,14.62
2022-09-26T11:00:37.540Z,14.53
2022-09-26T11:03:07.461Z,14.43
2022-09-26T11:05:36.304Z,14.46
2022-09-26T11:08:06.811Z,14.79
2022-09-26T11:10:35.208Z,14.94
2022-09-26T11:13:14.895Z,15.14
2022-09-26T11:15:52.669Z,15.12
2022-09-26T11:18:26.924Z,15.29
2022-09-26T11:21:03.887Z,15.40
2022-09-26T11:23:41.525Z,15.52
2022-09-26T11:26:14.521Z,15.64
2022-09-26T11:28:47.211Z,15.70
2022-09-26T11:31:28.784Z,15.66
2022-09-26T11:33:59.563Z,15.48
2022-09-26T11:36:49.267Z,15.76
2022-09-26T11:39:32.458Z,16.00
2022-09-26T11:42:12.234Z,15.94
2022-09-26T11:44:55.670Z,15.93
2022-09-26T11:48:00.126Z,15.94
2022-09-26T11:50:37.762Z,16.12
2022-09-26T11:53:19.991Z,16.13
2022-09-26T11:56:04.106Z,16.37
2022-09-26T11:58:41.554Z,16.23
2022-09-26T12:01:20.190Z,16.11
2022-09-26T12:04:09.414Z,16.24
2022-09-26T12:06:46.616Z,16.12
2022-09-26T12:09:33.504Z,16.19
2022-09-26T12:12:13.100Z,16.22
2022-09-26T12:14:52.938Z,16.13
2022-09-26T12:17:28.219Z,16.18
2022-09-26T12:20:03.139Z,16.17
2022-09-26T12:22:37.734Z,16.12
2022-09-26T12:25:26.540Z,16.19
2022-09-26T12:28:07.751Z,16.26
2022-09-26T12:30:40.274Z,16.15
2022-09-26T12:33:41.666Z,16.21
2022-09-26T12:36:20.050Z,16.34
2022-09-26T12:39:04.423Z,16.34
2022-09-26T12:42:05.197Z,16.48
2022-09-26T12:44:53.559Z,16.59
2022-09-26T12:47:58.185Z,16.63
2022-09-26T12:50:39.774Z,16.70
2022-09-26T12:53:37.044Z,16.82
2022-09-26T12:56:08.695Z,16.84
2022-09-26T12:58:52.551Z,16.57
2022-09-26T13:01:40.954Z,16.36
2022-09-26T13:04:37.449Z,16.36
2022-09-26T13:07:21.007Z,16.38
2022-09-26T13:10:11.491Z,16.44
2022-09-26T13:12:58.542Z,16.62
2022-09-26T13:15:30.048Z,16.54
2022-09-26T13:18:03.252Z,16.55
2022-09-26T13:20:37.342Z,16.61
2022-09-26T13:27:16.255Z,16.30
2022-09-26T13:29:49.133Z,16.59
2022-09-26T13:32:20.952Z,16.97
2022-09-26T13:34:57.168Z,17.00
2022-09-26T13:37:38.836Z,16.76
2022-09-26T13:40:21.817Z,16.79
2022-09-26T13:42:58.306Z,16.69
2022-09-26T13:45:37.949Z,16.85
2022-09-26T13:48:10.601Z,16.76
2022-09-26T13:50:45.282Z,16.69
2022-09-26T13:53:21.917Z,16.76
2022-09-26T13:56:23.249Z,16.93
2022-09-26T13:59:03.422Z,17.53
2022-09-26T14:01:31.209Z,17.74
2022-09-26T14:04:17.338Z,17.87
2022-09-26T14:07:13.041Z,17.94
2022-09-26T14:09:52.619Z,17.77
2022-09-26T14:12:33.048Z,17.82
2022-09-26T14:15:22.166Z,17.68
2022-09-26T14:18:12.425Z,17.76
2022-09-26T14:21:05.071Z,17.65
2022-09-26T14:23:43.292Z,17.58
2022-09-26T14:26:19.162Z,17.76
2022-09-26T14:28:51.266Z,17.09
2022-09-26T14:31:40.293Z,16.85
2022-09-26T14:34:20.211Z,17.02
2022-09-26T14:36:48.608Z,17.28
2022-09-26T14:39:30.258Z,17.73
2022-09-26T14:41:58.310Z,17.92
2022-09-26T14:44:32.592Z,17.40
2022-09-26T14:47:06.872Z,17.42
2022-09-26T14:49:34.896Z,17.31
2022-09-26T14:52:03.784Z,17.50
2022-09-26T14:54:39.133Z,17.50
2022-09-26T14:57:20.904Z,17.42
2022-09-26T14:59:48.836Z,17.20
2022-09-26T15:02:30.112Z,17.14
2022-09-26T15:05:32.836Z,17.22
2022-09-26T15:08:01.918Z,17.49
2022-09-26T15:10:39.307Z,17.66
2022-09-26T15:13:27.025Z,17.55
2022-09-26T15:16:10.691Z,17.85
2022-09-26T15:18:40.899Z,17.66
2022-09-26T15:21:19.987Z,17.63
2022-09-26T15:23:50.327Z,17.68
2022-09-26T15:26:23.533Z,17.52
2022-09-26T15:28:53.142Z,17.63
2022-09-26T15:31:26.344Z,17.72
2022-09-26T15:34:00.712Z,17.84
2022-09-26T15:36:30.281Z,17.73
2022-09-26T15:38:58.493Z,17.65
2022-09-26T15:41:27.218Z,17.69
2022-09-26T15:44:00.936Z,17.90
2022-09-26T15:46:28.643Z,17.89
2022-09-26T15:48:55.977Z,17.87
2022-09-26T15:51:27.777Z,17.83
2022-09-26T15:53:59.020Z,17.80
2022-09-26T15:56:32.897Z,17.73
2022-09-26T15:59:06.953Z,17.59
2022-09-26T16:01:41.040Z,17.51
2022-09-26T16:04:19.132Z,17.27
2022-09-26T16:06:55.750Z,16.87
2022-09-26T16:09:29.557Z,16.89
2022-09-26T16:12:00.725Z,16.70
2022-09-26T16:14:35.586Z,16.67
2022-09-26T16:17:18.099Z,16.76
2022-09-26T16:19:47.766Z,16.61
2022-09-26T16:22:30.218Z,16.25
2022-09-26T16:25:17.480Z,15.98
2022-09-26T16:27:47.752Z,15.62
2022-09-26T16:30:42.321Z,15.75
2022-09-26T16:33:28.331Z,15.60
2022-09-26T16:36:02.134Z,15.71
2022-09-26T16:38:32.608Z,15.61
2022-09-26T16:41:04.554Z,15.11
2022-09-26T16:43:34.769Z,15.04
2022-09-26T16:46:06.083Z,15.02
2022-09-26T16:48:40.065Z,14.90
2022-09-26T16:51:18.077Z,14.63
2022-09-26T16:53:47.565Z,14.22
2022-09-26T16:56:17.585Z,13.71
2022-09-26T16:58:50.129Z,13.52
2022-09-26T17:01:17.624Z,13.53
2022-09-26T17:03:45.194Z,13.44
2022-09-26T17:06:13.002Z,13.36
2022-09-26T17:08:40.621Z,13.21
2022-09-26T17:11:15.200Z,13.17
2022-09-26T17:13:43.180Z,13.04
2022-09-26T17:16:13.081Z,13.03
2022-09-26T17:18:40.690Z,13.07
2022-09-26T17:21:09.240Z,13.10
2022-09-26T17:23:42.038Z,13.27
2022-09-26T17:26:18.178Z,13.13
2022-09-26T17:28:45.982Z,13.06
2022-09-26T17:31:17.849Z,13.03
2022-09-26T17:33:47.411Z,13.05
2022-09-26T17:36:20.185Z,13.00
2022-09-26T17:38:47.785Z,13.02
2022-09-26T17:41:16.187Z,12.79
2022-09-26T17:43:43.950Z,12.63
2022-09-26T17:46:15.394Z,12.59
2022-09-26T17:48:45.017Z,12.50
2022-09-26T17:51:12.739Z,12.41
2022-09-26T17:53:46.222Z,12.33
2022-09-26T17:56:17.305Z,12.40
2022-09-26T17:58:45.363Z,12.57
2022-09-26T18:01:21.678Z,12.64
2022-09-26T18:03:55.207Z,12.43
2022-09-26T18:06:24.885Z,12.26
2022-09-26T18:08:52.714Z,12.23
2022-09-26T18:11:20.063Z,11.92
2022-09-26T18:13:51.906Z,11.89
2022-09-26T18:16:19.627Z,12.00
2022-09-26T18:18:47.137Z,11.86
2022-09-26T18:21:17.578Z,11.82
2022-09-26T18:23:49.909Z,11.79
2022-09-26T18:26:26.422Z,11.80
2022-09-26T18:28:55.213Z,11.56
2022-09-26T18:31:26.826Z,11.46
2022-09-26T18:33:55.201Z,11.33
2022-09-26T18:36:24.935Z,11.25
2022-09-26T18:38:52.579Z,11.20
2022-09-26T18:41:22.847Z,11.20
2022-09-26T18:43:50.686Z,11.12
2022-09-26T18:46:18.400Z,11.00
2022-09-26T18:48:46.765Z,11.01
2022-09-26T18:51:14.386Z,11.01
2022-09-26T18:53:43.455Z,10.99
2022-09-26T18:56:11.827Z,10.88
2022-09-26T18:58:39.203Z,10.73
2022-09-26T19:01:11.433Z,10.59
2022-09-26T19:03:41.498Z,10.61
2022-09-26T19:06:10.576Z,10.47
2022-09-26T19:08:39.844Z,10.53
2022-09-26T19:11:13.769Z,10.46
2022-09-26T19:13:41.613Z,10.47
2022-09-26T19:16:09.816Z,10.59
2022-09-26T19:18:37.353Z,10.58
2022-09-26T19:21:08.278Z,10.65
2022-09-26T19:23:37.037Z,10.62
2022-09-26T19:26:06.068Z,10.56
2022-09-26T19:28:36.408Z,10.44
2022-09-26T19:31:04.584Z,10.44
2022-09-26T19:33:32.486Z,10.68
2022-09-26T19:35:59.869Z,10.76
2022-09-26T19:38:27.566Z,10.79
2022-09-26T19:40:55.131Z,10.83
2022-09-26T19:43:23.055Z,10.92
2022-09-26T19:45:54.435Z,10.99
2022-09-26T19:48:23.483Z,11.04
2022-09-26T19:50:51.896Z,11.06
2022-09-26T19:53:21.317Z,11.01
2022-09-26T19:55:49.058Z,11.10
2022-09-26T19:58:18.650Z,11.06
2022-09-26T20:00:50.439Z,11.05
2022-09-26T20:03:21.422Z,11.08
2022-09-26T20:05:50.426Z,11.10
2022-09-26T20:08:20.288Z,11.05
2022-09-26T20:10:48.187Z,11.09
2022-09-26T20:13:16.301Z,10.98
2022-09-26T20:15:44.809Z,10.93
2022-09-26T20:18:15.856Z,10.76
2022-09-26T20:20:52.280Z,10.64
2022-09-26T20:23:22.088Z,10.40
2022-09-26T20:25:51.862Z,10.41
2022-09-26T20:28:19.491Z,10.23
2022-09-26T20:30:46.931Z,9.84
2022-09-26T20:33:14.638Z,9.86
2022-09-26T20:35:46.728Z,10.01
2022-09-26T20:38:21.577Z,10.13
2022-09-26T20:40:49.220Z,10.23
2022-09-26T20:43:25.247Z,10.27
2022-09-26T20:45:53.004Z,10.33
2022-09-26T20:48:23.947Z,10.19
2022-09-26T20:50:52.776Z,9.96
2022-09-26T20:53:22.271Z,9.76
2022-09-26T20:55:51.042Z,9.78
2022-09-26T20:58:18.360Z,9.77
2022-09-26T21:00:46.193Z,9.67
2022-09-26T21:03:15.772Z,9.72
2022-09-26T21:05:43.327Z,9.70
2022-09-26T21:08:22.531Z,9.83
2022-09-26T21:10:49.780Z,9.94
2022-09-26T21:13:17.363Z,10.02
2022-09-26T21:15:44.688Z,10.10
2022-09-26T21:18:22.237Z,10.24
2022-09-26T21:20:51.254Z,10.31
2022-09-26T21:23:21.223Z,10.39
2022-09-26T21:25:48.714Z,10.53
2022-09-26T21:28:23.451Z,10.63
2022-09-26T21:30:51.125Z,10.73
2022-09-26T21:33:19.188Z,10.63
2022-09-26T21:35:46.989Z,10.69
2022-09-26T21:38:14.180Z,10.78
2022-09-26T21:40:44.525Z,10.94
2022-09-26T21:43:15.240Z,11.04
2022-09-26T21:45:44.805Z,11.14
2022-09-26T21:48:12.574Z,11.21
2022-09-26T21:50:45.557Z,11.26
2022-09-26T21:53:17.268Z,11.38
2022-09-26T21:55:51.676Z,11.46
2022-09-26T21:58:23.008Z,11.51
2022-09-26T22:00:50.170Z,11.59
2022-09-26T22:03:17.973Z,11.56
2022-09-26T22:05:45.637Z,11.49
2022-09-26T22:08:13.083Z,11.40
2022-09-26T22:10:40.344Z,11.27
2022-09-26T22:13:09.389Z,11.23
2022-09-26T22:15:36.662Z,11.21
2022-09-26T22:18:04.154Z,11.08
2022-09-26T22:20:31.695Z,11.05
2022-09-26T22:22:58.952Z,10.96
2022-09-26T22:25:26.401Z,10.89
2022-09-26T22:27:54.133Z,10.84
2022-09-26T22:30:23.211Z,10.79
2022-09-26T22:32:50.655Z,10.78
2022-09-26T22:38:03.202Z,10.73
2022-09-26T22:40:30.948Z,10.63
2022-09-26T22:42:58.173Z,10.65
2022-09-26T22:45:27.258Z,10.58
2022-09-26T22:47:54.829Z,10.52
2022-09-26T22:50:22.136Z,10.45
2022-09-26T22:52:49.310Z,10.34
2022-09-26T22:55:17.258Z,10.40
2022-09-26T22:57:44.650Z,10.52
2022-09-26T23:00:12.708Z,10.64
2022-09-26T23:02:41.877Z,10.66
2022-09-26T23:05:09.439Z,10.62
2022-09-26T23:07:36.773Z,10.61
2022-09-26T23:10:04.811Z,10.60
2022-09-26T23:12:32.165Z,10.74
2022-09-26T23:14:59.391Z,10.77
2022-09-26T23:17:26.855Z,10.88
2022-09-26T23:19:55.691Z,10.91
2022-09-26T23:22:22.900Z,10.98
2022-09-26T23:24:50.429Z,10.91
2022-09-26T23:27:17.647Z,10.85
2022-09-26T23:29:44.892Z,10.89
2022-09-26T23:32:12.529Z,10.84
2022-09-26T23:34:43.068Z,10.75
2022-09-26T23:37:11.698Z,10.82
2022-09-26T23:39:39.542Z,10.78
2022-09-26T23:42:06.902Z,10.75
2022-09-26T23:44:34.256Z,10.88
2022-09-26T23:47:02.502Z,10.96
2022-09-26T23:49:29.791Z,11.00
2022-09-26T23:51:56.983Z,11.11
2022-09-26T23:54:26.102Z,11.29
2022-09-26T23:56:53.287Z,11.47
2022-09-26T23:59:20.510Z,11.45
